sensor_id;sensor_type;location;lat;lon;timestamp;pressure;altitude;pressure_sealevel;temperature;humidity
70103;BME280;57470;50.034;15.256;2023-03-01T00:00:40;100679.06;;;-2.91;86.17
70103;BME280;57470;50.034;15.256;2023-03-01T00:03:05;100681.63;;;-2.93;85.66
70103;BME280;57470;50.034;15.256;2023-03-01T00:05:31;100681.63;;;-2.94;85.26
70103;BME280;57470;50.034;15.256;2023-03-01T00:07:57;100678.16;;;-2.96;85.45
70103;BME280;57470;50.034;15.256;2023-03-01T00:10:23;100682.50;;;-2.98;85.43
70103;BME280;57470;50.034;15.256;2023-03-01T00:12:48;100680.75;;;-2.98;85.23
70103;BME280;57470;50.034;15.256;2023-03-01T00:15:14;100677.22;;;-3.11;85.62
70103;BME280;57470;50.034;15.256;2023-03-01T00:17:40;100681.56;;;-3.08;84.96
70103;BME280;57470;50.034;15.256;2023-03-01T00:20:05;100681.56;;;-3.10;85.69
70103;BME280;57470;50.034;15.256;2023-03-01T00:22:36;100671.13;;;-3.16;85.62
70103;BME280;57470;50.034;15.256;2023-03-01T00:25:01;100683.22;;;-3.21;85.37
70103;BME280;57470;50.034;15.256;2023-03-01T00:27:27;100669.38;;;-3.12;85.68
70103;BME280;57470;50.034;15.256;2023-03-01T00:29:52;100665.91;;;-3.17;85.49
70103;BME280;57470;50.034;15.256;2023-03-01T00:32:17;100667.63;;;-3.18;85.85
70103;BME280;57470;50.034;15.256;2023-03-01T00:34:43;100666.69;;;-3.32;86.75
70103;BME280;57470;50.034;15.256;2023-03-01T00:37:19;100664.16;;;-3.23;86.03
70103;BME280;57470;50.034;15.256;2023-03-01T00:39:44;100666.59;;;-3.40;85.43
70103;BME280;57470;50.034;15.256;2023-03-01T00:42:10;100670.94;;;-3.38;86.18
70103;BME280;57470;50.034;15.256;2023-03-01T00:44:35;100666.63;;;-3.36;86.24
70103;BME280;57470;50.034;15.256;2023-03-01T00:47:00;100670.09;;;-3.39;87.35
70103;BME280;57470;50.034;15.256;2023-03-01T00:49:26;100672.66;;;-3.44;87.47
70103;BME280;57470;50.034;15.256;2023-03-01T00:51:53;100670.09;;;-3.41;87.71
70103;BME280;57470;50.034;15.256;2023-03-01T00:54:18;100663.97;;;-3.46;87.89
70103;BME280;57470;50.034;15.256;2023-03-01T00:56:44;100654.38;;;-3.56;87.69
70103;BME280;57470;50.034;15.256;2023-03-01T00:59:09;100652.56;;;-3.66;88.95
70103;BME280;57470;50.034;15.256;2023-03-01T01:01:34;100651.81;;;-3.48;88.29
70103;BME280;57470;50.034;15.256;2023-03-01T01:04:08;100652.66;;;-3.54;87.75
70103;BME280;57470;50.034;15.256;2023-03-01T01:06:40;100649.28;;;-3.42;88.65
70103;BME280;57470;50.034;15.256;2023-03-01T01:09:08;100645.75;;;-3.47;87.60
70103;BME280;57470;50.034;15.256;2023-03-01T01:11:34;100650.03;;;-3.58;88.05
70103;BME280;57470;50.034;15.256;2023-03-01T01:14:01;100648.31;;;-3.55;87.65
70103;BME280;57470;50.034;15.256;2023-03-01T01:16:28;100647.44;;;-3.55;86.85
70103;BME280;57470;50.034;15.256;2023-03-01T01:18:55;100646.59;;;-3.53;86.09
70103;BME280;57470;50.034;15.256;2023-03-01T01:21:22;100643.03;;;-3.65;85.80
70103;BME280;57470;50.034;15.256;2023-03-01T01:23:48;100647.41;;;-3.57;86.06
70103;BME280;57470;50.034;15.256;2023-03-01T01:26:25;100643.03;;;-3.64;86.24
70103;BME280;57470;50.034;15.256;2023-03-01T01:28:51;100637.84;;;-3.64;86.77
70103;BME280;57470;50.034;15.256;2023-03-01T01:31:18;100646.47;;;-3.66;87.47
70103;BME280;57470;50.034;15.256;2023-03-01T01:33:44;100645.63;;;-3.65;87.30
70103;BME280;57470;50.034;15.256;2023-03-01T01:36:10;100636.91;;;-3.76;86.87
70103;BME280;57470;50.034;15.256;2023-03-01T01:38:36;100641.25;;;-3.72;87.23
70103;BME280;57470;50.034;15.256;2023-03-01T01:41:02;100634.34;;;-3.69;86.37
70103;BME280;57470;50.034;15.256;2023-03-01T01:43:34;100630.00;;;-3.71;87.48
70103;BME280;57470;50.034;15.256;2023-03-01T01:46:06;100622.19;;;-3.76;86.85
70103;BME280;57470;50.034;15.256;2023-03-01T01:48:42;100623.84;;;-3.81;86.83
70103;BME280;57470;50.034;15.256;2023-03-01T01:51:20;100628.19;;;-3.82;87.87
70103;BME280;57470;50.034;15.256;2023-03-01T01:53:52;100625.63;;;-3.77;88.03
70103;BME280;57470;50.034;15.256;2023-03-01T01:56:20;100627.25;;;-3.88;89.31
70103;BME280;57470;50.034;15.256;2023-03-01T01:58:47;100621.19;;;-3.89;89.69
70103;BME280;57470;50.034;15.256;2023-03-01T02:01:13;100617.72;;;-3.91;88.32
70103;BME280;57470;50.034;15.256;2023-03-01T02:03:39;100621.31;;;-3.76;87.90
70103;BME280;57470;50.034;15.256;2023-03-01T02:06:34;100614.34;;;-3.79;87.53
70103;BME280;57470;50.034;15.256;2023-03-01T02:09:06;100610.84;;;-3.83;87.19
70103;BME280;57470;50.034;15.256;2023-03-01T02:11:33;100595.19;;;-3.92;87.92
70103;BME280;57470;50.034;15.256;2023-03-01T02:13:59;100608.19;;;-3.90;87.59
70103;BME280;57470;50.034;15.256;2023-03-01T02:16:25;100601.25;;;-3.94;87.91
70103;BME280;57470;50.034;15.256;2023-03-01T02:18:52;100607.28;;;-3.97;87.58
70103;BME280;57470;50.034;15.256;2023-03-01T02:24:33;100609.03;;;-3.96;90.24
70103;BME280;57470;50.034;15.256;2023-03-01T02:27:01;100605.56;;;-3.93;89.53
70103;BME280;57470;50.034;15.256;2023-03-01T02:29:28;100601.28;;;-3.88;88.25
70103;BME280;57470;50.034;15.256;2023-03-01T02:31:56;100605.56;;;-3.92;87.89
70103;BME280;57470;50.034;15.256;2023-03-01T02:34:24;100603.78;;;-3.99;88.28
70103;BME280;57470;50.034;15.256;2023-03-01T02:37:12;100602.00;;;-4.06;87.77
70103;BME280;57470;50.034;15.256;2023-03-01T02:39:44;100604.53;;;-4.10;87.54
70103;BME280;57470;50.034;15.256;2023-03-01T02:42:14;100595.91;;;-4.09;87.90
70103;BME280;57470;50.034;15.256;2023-03-01T02:44:40;100600.19;;;-4.16;88.40
70103;BME280;57470;50.034;15.256;2023-03-01T02:47:05;100600.22;;;-4.10;88.51
70103;BME280;57470;50.034;15.256;2023-03-01T02:49:34;100595.09;;;-4.04;87.39
70103;BME280;57470;50.034;15.256;2023-03-01T02:52:29;100589.78;;;-4.16;87.68
70103;BME280;57470;50.034;15.256;2023-03-01T02:55:04;100588.88;;;-4.23;87.91
70103;BME280;57470;50.034;15.256;2023-03-01T02:57:34;100594.16;;;-4.10;88.20
70103;BME280;57470;50.034;15.256;2023-03-01T03:00:08;100591.50;;;-4.17;88.19
70103;BME280;57470;50.034;15.256;2023-03-01T03:02:36;100596.81;;;-4.06;88.23
70103;BME280;57470;50.034;15.256;2023-03-01T03:05:09;100594.16;;;-4.12;88.04
70103;BME280;57470;50.034;15.256;2023-03-01T03:07:39;100588.03;;;-4.22;88.71
70103;BME280;57470;50.034;15.256;2023-03-01T03:10:09;100594.97;;;-4.16;88.64
70103;BME280;57470;50.034;15.256;2023-03-01T03:12:38;100604.47;;;-4.18;89.63
70103;BME280;57470;50.034;15.256;2023-03-01T03:15:06;100594.06;;;-4.23;88.53
70103;BME280;57470;50.034;15.256;2023-03-01T03:17:38;100591.50;;;-4.21;88.68
70103;BME280;57470;50.034;15.256;2023-03-01T03:20:07;100588.03;;;-4.17;89.20
70103;BME280;57470;50.034;15.256;2023-03-01T03:22:41;100590.63;;;-4.22;88.28
70103;BME280;57470;50.034;15.256;2023-03-01T03:25:08;100584.50;;;-4.30;88.13
70103;BME280;57470;50.034;15.256;2023-03-01T03:27:37;100584.50;;;-4.27;87.92
70103;BME280;57470;50.034;15.256;2023-03-01T03:30:05;100585.31;;;-4.29;88.84
70103;BME280;57470;50.034;15.256;2023-03-01T03:32:36;100577.53;;;-4.29;88.41
70103;BME280;57470;50.034;15.256;2023-03-01T03:35:07;100581.13;;;-4.15;88.62
70103;BME280;57470;50.034;15.256;2023-03-01T03:37:39;100578.50;;;-4.20;88.48
70103;BME280;57470;50.034;15.256;2023-03-01T03:40:24;100582.75;;;-4.31;88.46
70103;BME280;57470;50.034;15.256;2023-03-01T03:42:49;100575.75;;;-4.36;89.63
70103;BME280;57470;50.034;15.256;2023-03-01T03:45:18;100575.03;;;-4.19;89.70
70103;BME280;57470;50.034;15.256;2023-03-01T03:47:44;100565.53;;;-4.21;89.40
70103;BME280;57470;50.034;15.256;2023-03-01T03:50:12;100565.53;;;-4.21;88.99
70103;BME280;57470;50.034;15.256;2023-03-01T03:52:37;100566.38;;;-4.19;89.09
70103;BME280;57470;50.034;15.256;2023-03-01T03:55:04;100564.63;;;-4.23;88.72
70103;BME280;57470;50.034;15.256;2023-03-01T03:57:34;100556.69;;;-4.38;88.82
70103;BME280;57470;50.034;15.256;2023-03-01T04:00:00;100564.47;;;-4.40;89.34
70103;BME280;57470;50.034;15.256;2023-03-01T04:02:25;100561.91;;;-4.35;89.28
70103;BME280;57470;50.034;15.256;2023-03-01T04:04:51;100561.72;;;-4.57;90.08
70103;BME280;57470;50.034;15.256;2023-03-01T04:07:16;100560.16;;;-4.41;90.45
70103;BME280;57470;50.034;15.256;2023-03-01T04:09:43;100561.03;;;-4.37;89.38
70103;BME280;57470;50.034;15.256;2023-03-01T04:12:09;100561.00;;;-4.42;88.96
70103;BME280;57470;50.034;15.256;2023-03-01T04:14:35;100561.03;;;-4.36;88.52
70103;BME280;57470;50.034;15.256;2023-03-01T04:17:00;100560.00;;;-4.58;88.75
70103;BME280;57470;50.034;15.256;2023-03-01T04:19:26;100571.25;;;-4.54;88.27
70103;BME280;57470;50.034;15.256;2023-03-01T04:21:52;100573.81;;;-4.56;88.59
70103;BME280;57470;50.034;15.256;2023-03-01T04:24:17;100578.25;;;-4.47;88.58
70103;BME280;57470;50.034;15.256;2023-03-01T04:26:43;100568.63;;;-4.56;88.50
70103;BME280;57470;50.034;15.256;2023-03-01T04:29:08;100567.72;;;-4.61;89.54
70103;BME280;57470;50.034;15.256;2023-03-01T04:31:33;100568.59;;;-4.60;89.24
70103;BME280;57470;50.034;15.256;2023-03-01T04:33:59;100566.00;;;-4.60;89.22
70103;BME280;57470;50.034;15.256;2023-03-01T04:36:27;100565.91;;;-4.71;89.68
70103;BME280;57470;50.034;15.256;2023-03-01T04:38:54;100570.13;;;-4.79;89.73
70103;BME280;57470;50.034;15.256;2023-03-01T04:41:21;100577.13;;;-4.75;90.54
70103;BME280;57470;50.034;15.256;2023-03-01T04:43:47;100572.00;;;-4.64;90.09
70103;BME280;57470;50.034;15.256;2023-03-01T04:46:15;100576.34;;;-4.66;89.78
70103;BME280;57470;50.034;15.256;2023-03-01T04:48:42;100571.81;;;-4.82;91.32
70103;BME280;57470;50.034;15.256;2023-03-01T04:51:08;100585.00;;;-4.66;91.04
70103;BME280;57470;50.034;15.256;2023-03-01T04:53:35;100584.91;;;-4.75;90.12
70103;BME280;57470;50.034;15.256;2023-03-01T04:56:03;100584.09;;;-4.69;90.32
70103;BME280;57470;50.034;15.256;2023-03-01T04:58:29;100571.97;;;-4.70;89.66
70103;BME280;57470;50.034;15.256;2023-03-01T05:00:55;100565.84;;;-4.77;90.38
70103;BME280;57470;50.034;15.256;2023-03-01T05:03:21;100571.84;;;-4.81;89.40
70103;BME280;57470;50.034;15.256;2023-03-01T05:05:49;100574.38;;;-4.87;89.43
70103;BME280;57470;50.034;15.256;2023-03-01T05:08:15;100581.44;;;-4.74;89.91
70103;BME280;57470;50.034;15.256;2023-03-01T05:10:52;100575.28;;;-4.85;89.76
70103;BME280;57470;50.034;15.256;2023-03-01T05:13:19;100570.00;;;-4.89;90.66
70103;BME280;57470;50.034;15.256;2023-03-01T05:15:49;100565.78;;;-4.80;90.21
70103;BME280;57470;50.034;15.256;2023-03-01T05:18:18;100565.78;;;-4.80;89.31
70103;BME280;57470;50.034;15.256;2023-03-01T05:20:43;100557.06;;;-4.88;90.23
70103;BME280;57470;50.034;15.256;2023-03-01T05:23:10;100552.78;;;-4.84;90.60
70103;BME280;57470;50.034;15.256;2023-03-01T05:25:35;100551.91;;;-4.85;89.49
70103;BME280;57470;50.034;15.256;2023-03-01T05:28:06;100545.78;;;-4.90;89.77
70103;BME280;57470;50.034;15.256;2023-03-01T05:30:35;100541.53;;;-4.85;89.31
70103;BME280;57470;50.034;15.256;2023-03-01T05:33:01;100544.88;;;-4.95;90.21
70103;BME280;57470;50.034;15.256;2023-03-01T05:35:27;100538.97;;;-4.83;90.12
70103;BME280;57470;50.034;15.256;2023-03-01T05:37:53;100538.66;;;-5.12;92.03
70103;BME280;57470;50.034;15.256;2023-03-01T05:40:21;100540.56;;;-4.95;92.76
70103;BME280;57470;50.034;15.256;2023-03-01T05:42:49;100546.72;;;-4.85;90.75
70103;BME280;57470;50.034;15.256;2023-03-01T05:45:16;100551.72;;;-5.00;90.64
70103;BME280;57470;50.034;15.256;2023-03-01T05:47:44;100553.66;;;-4.85;90.66
70103;BME280;57470;50.034;15.256;2023-03-01T05:50:26;100556.34;;;-4.75;90.02
70103;BME280;57470;50.034;15.256;2023-03-01T05:53:00;100560.56;;;-4.86;90.47
70103;BME280;57470;50.034;15.256;2023-03-01T05:55:26;100552.88;;;-4.77;89.52
70103;BME280;57470;50.034;15.256;2023-03-01T05:57:52;100563.16;;;-4.86;90.82
70103;BME280;57470;50.034;15.256;2023-03-01T06:00:19;100559.84;;;-4.71;90.46
70103;BME280;57470;50.034;15.256;2023-03-01T06:02:47;100563.41;;;-4.62;90.04
70103;BME280;57470;50.034;15.256;2023-03-01T06:05:13;100566.06;;;-4.54;89.70
70103;BME280;57470;50.034;15.256;2023-03-01T06:07:39;100560.94;;;-4.49;89.92
70103;BME280;57470;50.034;15.256;2023-03-01T06:10:05;100552.31;;;-4.44;89.61
70103;BME280;57470;50.034;15.256;2023-03-01T06:12:32;100560.06;;;-4.48;89.32
70103;BME280;57470;50.034;15.256;2023-03-01T06:14:58;100571.41;;;-4.40;89.69
70103;BME280;57470;50.034;15.256;2023-03-01T06:17:24;100563.69;;;-4.31;89.53
70103;BME280;57470;50.034;15.256;2023-03-01T06:19:50;100569.81;;;-4.20;90.08
70103;BME280;57470;50.034;15.256;2023-03-01T06:22:15;100559.34;;;-4.29;90.81
70103;BME280;57470;50.034;15.256;2023-03-01T06:24:40;100568.03;;;-2.83;89.32
70103;BME280;57470;50.034;15.256;2023-03-01T06:27:06;100566.31;;;-1.37;82.38
70103;BME280;57470;50.034;15.256;2023-03-01T06:29:31;100550.69;;;0.04;77.40
70103;BME280;57470;50.034;15.256;2023-03-01T06:31:56;100550.84;;;1.43;71.66
70103;BME280;57470;50.034;15.256;2023-03-01T06:34:22;100545.41;;;2.59;67.81
70103;BME280;57470;50.034;15.256;2023-03-01T06:36:47;100535.75;;;3.43;65.33
70103;BME280;57470;50.034;15.256;2023-03-01T06:39:13;100537.53;;;4.47;63.77
70103;BME280;57470;50.034;15.256;2023-03-01T06:41:38;100531.50;;;4.76;61.24
70103;BME280;57470;50.034;15.256;2023-03-01T06:44:04;100534.63;;;5.20;60.20
70103;BME280;57470;50.034;15.256;2023-03-01T06:46:29;100536.06;;;5.59;60.41
70103;BME280;57470;50.034;15.256;2023-03-01T06:48:55;100548.41;;;6.39;58.96
70103;BME280;57470;50.034;15.256;2023-03-01T06:51:20;100535.34;;;7.08;57.46
70103;BME280;57470;50.034;15.256;2023-03-01T06:53:46;100534.28;;;7.13;56.73
70103;BME280;57470;50.034;15.256;2023-03-01T06:56:11;100537.34;;;6.53;58.09
70103;BME280;57470;50.034;15.256;2023-03-01T06:58:37;100534.25;;;8.04;55.66
70103;BME280;57470;50.034;15.256;2023-03-01T07:01:07;100530.34;;;8.75;53.52
70103;BME280;57470;50.034;15.256;2023-03-01T07:03:32;100529.94;;;5.85;58.65
70103;BME280;57470;50.034;15.256;2023-03-01T07:05:57;100535.84;;;5.65;61.48
70103;BME280;57470;50.034;15.256;2023-03-01T07:08:23;100540.06;;;6.52;59.51
70103;BME280;57470;50.034;15.256;2023-03-01T07:10:48;100547.63;;;8.43;55.42
70103;BME280;57470;50.034;15.256;2023-03-01T07:13:19;100535.97;;;7.83;56.50
70103;BME280;57470;50.034;15.256;2023-03-01T07:15:44;100544.84;;;6.65;58.93
70103;BME280;57470;50.034;15.256;2023-03-01T07:18:10;100551.94;;;8.45;55.84
70103;BME280;57470;50.034;15.256;2023-03-01T07:20:35;100545.03;;;6.61;59.87
70103;BME280;57470;50.034;15.256;2023-03-01T07:23:00;100552.56;;;6.96;57.90
70103;BME280;57470;50.034;15.256;2023-03-01T07:25:26;100547.56;;;5.85;60.64
70103;BME280;57470;50.034;15.256;2023-03-01T07:27:52;100542.75;;;4.83;64.24
70103;BME280;57470;50.034;15.256;2023-03-01T07:30:18;100535.91;;;4.76;64.85
70103;BME280;57470;50.034;15.256;2023-03-01T07:32:44;100547.94;;;2.15;70.13
70103;BME280;57470;50.034;15.256;2023-03-01T07:35:10;100555.84;;;2.61;72.11
70103;BME280;57470;50.034;15.256;2023-03-01T07:37:35;100550.81;;;2.50;73.67
70103;BME280;57470;50.034;15.256;2023-03-01T07:40:01;100547.44;;;2.42;74.30
70103;BME280;57470;50.034;15.256;2023-03-01T07:42:26;100552.19;;;2.70;74.12
70103;BME280;57470;50.034;15.256;2023-03-01T07:44:51;100550.19;;;2.84;74.11
70103;BME280;57470;50.034;15.256;2023-03-01T07:47:17;100552.47;;;3.00;72.24
70103;BME280;57470;50.034;15.256;2023-03-01T07:49:42;100549.47;;;2.28;73.10
70103;BME280;57470;50.034;15.256;2023-03-01T07:52:10;100551.94;;;2.83;73.27
70103;BME280;57470;50.034;15.256;2023-03-01T07:54:35;100551.75;;;2.48;73.56
70103;BME280;57470;50.034;15.256;2023-03-01T07:57:01;100544.41;;;2.65;72.46
70103;BME280;57470;50.034;15.256;2023-03-01T07:59:26;100540.47;;;1.92;74.29
70103;BME280;57470;50.034;15.256;2023-03-01T08:01:55;100539.75;;;2.78;73.16
70103;BME280;57470;50.034;15.256;2023-03-01T08:04:20;100537.03;;;2.84;72.89
70103;BME280;57470;50.034;15.256;2023-03-01T08:06:46;100530.81;;;2.88;73.18
70103;BME280;57470;50.034;15.256;2023-03-01T08:09:11;100531.75;;;2.85;72.82
70103;BME280;57470;50.034;15.256;2023-03-01T08:11:36;100526.81;;;2.69;73.98
70103;BME280;57470;50.034;15.256;2023-03-01T08:14:02;100518.59;;;1.93;76.00
70103;BME280;57470;50.034;15.256;2023-03-01T08:16:28;100519.44;;;2.43;75.25
70103;BME280;57470;50.034;15.256;2023-03-01T08:18:53;100510.59;;;2.48;75.18
70103;BME280;57470;50.034;15.256;2023-03-01T08:21:21;100520.16;;;2.51;76.65
70103;BME280;57470;50.034;15.256;2023-03-01T08:23:47;100512.88;;;2.19;78.09
70103;BME280;57470;50.034;15.256;2023-03-01T08:26:17;100516.72;;;1.44;78.21
70103;BME280;57470;50.034;15.256;2023-03-01T08:28:44;100517.97;;;1.79;77.93
70103;BME280;57470;50.034;15.256;2023-03-01T08:31:21;100515.81;;;2.50;76.90
70103;BME280;57470;50.034;15.256;2023-03-01T08:33:48;100514.63;;;2.66;75.52
70103;BME280;57470;50.034;15.256;2023-03-01T08:36:17;100511.16;;;2.64;74.59
70103;BME280;57470;50.034;15.256;2023-03-01T08:38:42;100518.00;;;2.71;75.05
70103;BME280;57470;50.034;15.256;2023-03-01T08:41:08;100512.56;;;2.80;75.50
70103;BME280;57470;50.034;15.256;2023-03-01T08:43:33;100509.16;;;2.32;72.54
70103;BME280;57470;50.034;15.256;2023-03-01T08:45:58;100510.59;;;2.91;72.98
70103;BME280;57470;50.034;15.256;2023-03-01T08:48:25;100506.56;;;2.75;72.10
70103;BME280;57470;50.034;15.256;2023-03-01T08:50:50;100505.94;;;2.16;71.61
70103;BME280;57470;50.034;15.256;2023-03-01T08:53:16;100500.53;;;2.24;72.43
70103;BME280;57470;50.034;15.256;2023-03-01T08:55:41;100508.38;;;2.72;72.60
70103;BME280;57470;50.034;15.256;2023-03-01T08:58:06;100494.66;;;2.99;72.10
70103;BME280;57470;50.034;15.256;2023-03-01T09:00:32;100490.56;;;3.26;71.67
70103;BME280;57470;50.034;15.256;2023-03-01T09:03:00;100491.69;;;2.74;71.68
70103;BME280;57470;50.034;15.256;2023-03-01T09:05:25;100487.78;;;2.93;72.38
70103;BME280;57470;50.034;15.256;2023-03-01T09:07:50;100489.97;;;2.73;74.12
70103;BME280;57470;50.034;15.256;2023-03-01T09:10:16;100481.06;;;2.80;72.42
70103;BME280;57470;50.034;15.256;2023-03-01T09:12:41;100485.91;;;2.58;70.97
70103;BME280;57470;50.034;15.256;2023-03-01T09:15:07;100482.56;;;2.92;70.96
70103;BME280;57470;50.034;15.256;2023-03-01T09:17:33;100483.72;;;3.19;71.97
70103;BME280;57470;50.034;15.256;2023-03-01T09:19:58;100484.28;;;3.33;70.49
70103;BME280;57470;50.034;15.256;2023-03-01T09:22:24;100477.28;;;3.69;70.39
70103;BME280;57470;50.034;15.256;2023-03-01T09:24:50;100473.97;;;3.61;70.25
70103;BME280;57470;50.034;15.256;2023-03-01T09:27:15;100468.44;;;3.71;69.02
70103;BME280;57470;50.034;15.256;2023-03-01T09:29:44;100468.69;;;3.62;70.14
70103;BME280;57470;50.034;15.256;2023-03-01T09:32:09;100462.34;;;3.69;67.60
70103;BME280;57470;50.034;15.256;2023-03-01T09:34:35;100457.91;;;3.36;69.35
70103;BME280;57470;50.034;15.256;2023-03-01T09:37:20;100455.28;;;4.05;68.52
70103;BME280;57470;50.034;15.256;2023-03-01T09:39:45;100450.41;;;3.58;66.70
70103;BME280;57470;50.034;15.256;2023-03-01T09:42:12;100454.63;;;3.63;66.74
70103;BME280;57470;50.034;15.256;2023-03-01T09:44:51;100448.63;;;3.92;66.36
70103;BME280;57470;50.034;15.256;2023-03-01T09:47:19;100445.25;;;3.52;66.27
70103;BME280;57470;50.034;15.256;2023-03-01T09:52:29;100450.28;;;4.29;65.95
70103;BME280;57470;50.034;15.256;2023-03-01T09:54:56;100448.00;;;4.15;66.36
70103;BME280;57470;50.034;15.256;2023-03-01T10:00:33;100445.41;;;4.13;66.62
70103;BME280;57470;50.034;15.256;2023-03-01T10:03:39;100440.38;;;4.38;66.23
70103;BME280;57470;50.034;15.256;2023-03-01T10:11:02;100441.56;;;4.27;65.08
70103;BME280;57470;50.034;15.256;2023-03-01T10:13:36;100437.75;;;4.68;65.21
70103;BME280;57470;50.034;15.256;2023-03-01T10:16:12;100437.59;;;4.74;64.44
70103;BME280;57470;50.034;15.256;2023-03-01T10:18:40;100429.50;;;5.09;64.28
70103;BME280;57470;50.034;15.256;2023-03-01T10:21:18;100428.50;;;5.12;63.54
70103;BME280;57470;50.034;15.256;2023-03-01T10:23:45;100431.09;;;5.13;62.42
70103;BME280;57470;50.034;15.256;2023-03-01T10:26:43;100429.75;;;5.28;62.80
70103;BME280;57470;50.034;15.256;2023-03-01T10:29:11;100427.63;;;5.93;61.43
70103;BME280;57470;50.034;15.256;2023-03-01T10:31:42;100417.94;;;4.55;61.69
70103;BME280;57470;50.034;15.256;2023-03-01T10:34:11;100415.31;;;5.40;61.61
70103;BME280;57470;50.034;15.256;2023-03-01T10:36:38;100410.78;;;5.17;61.36
70103;BME280;57470;50.034;15.256;2023-03-01T10:39:14;100414.94;;;5.52;60.97
70103;BME280;57470;50.034;15.256;2023-03-01T10:42:11;100401.13;;;5.70;60.00
70103;BME280;57470;50.034;15.256;2023-03-01T10:44:46;100407.97;;;5.76;60.86
70103;BME280;57470;50.034;15.256;2023-03-01T10:47:26;100405.81;;;5.87;59.57
70103;BME280;57470;50.034;15.256;2023-03-01T10:49:53;100404.25;;;6.08;61.39
70103;BME280;57470;50.034;15.256;2023-03-01T10:52:21;100393.22;;;6.20;58.72
70103;BME280;57470;50.034;15.256;2023-03-01T10:57:39;100387.84;;;6.23;59.13
70103;BME280;57470;50.034;15.256;2023-03-01T11:00:21;100372.56;;;6.31;58.65
70103;BME280;57470;50.034;15.256;2023-03-01T11:02:50;100368.66;;;6.18;58.62
70103;BME280;57470;50.034;15.256;2023-03-01T11:05:24;100375.00;;;5.87;58.13
70103;BME280;57470;50.034;15.256;2023-03-01T11:07:53;100363.59;;;6.12;58.30
70103;BME280;57470;50.034;15.256;2023-03-01T11:10:33;100367.03;;;5.90;58.02
70103;BME280;57470;50.034;15.256;2023-03-01T11:13:14;100359.00;;;6.63;58.61
70103;BME280;57470;50.034;15.256;2023-03-01T11:15:40;100355.41;;;6.43;57.90
70103;BME280;57470;50.034;15.256;2023-03-01T11:18:19;100352.78;;;6.88;58.74
70103;BME280;57470;50.034;15.256;2023-03-01T11:20:46;100348.34;;;6.43;58.61
70103;BME280;57470;50.034;15.256;2023-03-01T11:23:15;100338.13;;;6.34;58.91
70103;BME280;57470;50.034;15.256;2023-03-01T11:25:43;100330.88;;;7.28;57.95
70103;BME280;57470;50.034;15.256;2023-03-01T11:28:14;100323.31;;;7.19;57.62
70103;BME280;57470;50.034;15.256;2023-03-01T11:30:52;100315.84;;;6.63;58.15
70103;BME280;57470;50.034;15.256;2023-03-01T11:33:40;100319.19;;;7.33;57.28
70103;BME280;57470;50.034;15.256;2023-03-01T11:38:53;100307.16;;;7.87;57.02
70103;BME280;57470;50.034;15.256;2023-03-01T11:41:26;100308.34;;;7.80;56.73
70103;BME280;57470;50.034;15.256;2023-03-01T11:52:30;100301.56;;;8.13;57.91
70103;BME280;57470;50.034;15.256;2023-03-01T12:03:58;100288.06;;;8.38;55.06
70103;BME280;57470;50.034;15.256;2023-03-01T12:06:38;100286.72;;;8.28;56.15
70103;BME280;57470;50.034;15.256;2023-03-01T12:15:25;100269.97;;;8.27;53.82
70103;BME280;57470;50.034;15.256;2023-03-01T12:34:40;100243.06;;;9.09;52.12
70103;BME280;57470;50.034;15.256;2023-03-01T12:37:32;100244.25;;;9.55;54.68
70103;BME280;57470;50.034;15.256;2023-03-01T12:50:47;100226.16;;;9.78;51.91
70103;BME280;57470;50.034;15.256;2023-03-01T12:53:26;100220.06;;;9.26;52.84
70103;BME280;57470;50.034;15.256;2023-03-01T12:55:54;100224.97;;;9.17;53.97
70103;BME280;57470;50.034;15.256;2023-03-01T12:58:31;100229.75;;;9.77;52.06
70103;BME280;57470;50.034;15.256;2023-03-01T13:01:27;100220.94;;;9.60;51.28
70103;BME280;57470;50.034;15.256;2023-03-01T13:09:19;100200.09;;;9.19;52.42
70103;BME280;57470;50.034;15.256;2023-03-01T13:11:48;100197.31;;;9.55;53.69
70103;BME280;57470;50.034;15.256;2023-03-01T13:16:49;100198.09;;;8.88;54.08
70103;BME280;57470;50.034;15.256;2023-03-01T13:19:17;100209.72;;;8.86;54.40
70103;BME280;57470;50.034;15.256;2023-03-01T13:21:44;100212.22;;;8.89;53.07
70103;BME280;57470;50.034;15.256;2023-03-01T13:24:33;100203.53;;;9.21;52.72
70103;BME280;57470;50.034;15.256;2023-03-01T13:29:52;100198.91;;;9.08;52.27
70103;BME280;57470;50.034;15.256;2023-03-01T13:32:22;100201.22;;;9.48;51.96
70103;BME280;57470;50.034;15.256;2023-03-01T13:34:55;100198.22;;;9.87;51.32
70103;BME280;57470;50.034;15.256;2023-03-01T13:37:41;100198.81;;;9.76;52.14
70103;BME280;57470;50.034;15.256;2023-03-01T13:45:47;100202.16;;;9.47;51.53
70103;BME280;57470;50.034;15.256;2023-03-01T13:50:51;100198.72;;;9.45;51.79
70103;BME280;57470;50.034;15.256;2023-03-01T13:53:22;100206.50;;;10.14;51.36
70103;BME280;57470;50.034;15.256;2023-03-01T13:56:16;100204.97;;;8.75;53.55
70103;BME280;57470;50.034;15.256;2023-03-01T13:58:47;100195.03;;;9.65;52.17
70103;BME280;57470;50.034;15.256;2023-03-01T14:03:52;100194.81;;;9.52;51.90
70103;BME280;57470;50.034;15.256;2023-03-01T14:06:26;100195.75;;;9.51;53.29
70103;BME280;57470;50.034;15.256;2023-03-01T14:09:16;100188.28;;;8.90;53.29
70103;BME280;57470;50.034;15.256;2023-03-01T14:19:40;100175.81;;;9.10;54.55
70103;BME280;57470;50.034;15.256;2023-03-01T14:22:23;100180.38;;;9.23;53.98
70103;BME280;57470;50.034;15.256;2023-03-01T14:24:52;100184.53;;;9.29;53.96
70103;BME280;57470;50.034;15.256;2023-03-01T14:27:19;100176.13;;;9.54;53.43
70103;BME280;57470;50.034;15.256;2023-03-01T14:29:56;100185.88;;;9.03;53.27
70103;BME280;57470;50.034;15.256;2023-03-01T14:32:26;100173.88;;;9.79;52.58
70103;BME280;57470;50.034;15.256;2023-03-01T14:34:52;100176.41;;;9.32;53.45